Airfield :







YOU CAN JOIN US ON...

 
LOGIN :

Register | Disclaimer

   EN    FR    IT 

 









Legend :    VFR   Marginal VFR   IFR   Intensive IFR   Very Intensive IFR
Visi :
Ceiling :
>= 8 km
>= 3000ft
5 to 8 km
1000 to 3000 ft
1500m to 5 km
500 to 1000 ft
800 to 1500m
200 to 500 ft
< 800m
< 200 ft
Symbols :   Thunderstorms  Fog  Heavy snow  Heavy precipitations  Wind > 20 kt






- Airport Elevation : 83 ft


KBHB - Hancock County-Bar Harbor

CURRENT METAR :
  • 250256Z AUTO 00000KT 10SM CLR 12/11 A3046 RMK AO2 SLP315 60001 T01170106 53013

EXPIRED METARs :
  • 250156Z AUTO 00000KT 10SM CLR 12/10 A3044 RMK AO2 SLP310 P0001 T01220100
  • 250056Z AUTO 19005KT 10SM CLR 14/11 A3043 RMK AO2 SLP305 T01390111

TAF KBHB
Valid from the 25 at 00:00 until the 26 at 00:00 UTC


242320Z 2500/2524 19006KT P6SM SKC
FM250800 17006KT P6SM BKN050
FM251200 17006KT P6SM VCSH SCT015 OVC025
FM251500 14006KT 5SM -SHRA BR SCT008 OVC015
FM251800 15008KT 2SM BR VCSH OVC005
KZBW FIR / North America



MET'MAP, your aeronautical weather chart ! - Copyright ORBIFLY December 2007 - Disclaimer

ORBIFLY MET'MAP TEAM :

Programming & Development : Alexandra Zaïnal
Concept & original design : Baudouin d'Aumeries
Assistance for programming : Marc-Olivier Méhu
Technical & hardware support : Manuel Goepfert

Contact : metmap@orbifly.com




SOURCES & CREDITS :

   NOAA